Time;durP1;ratioP1;P1;durP2;ratioP2;P2;SDS_P1;SDS_P2;PMS_P1;PMS_P2;Temp;Humidity;BMP_temperature;BMP_pressure;BME280_temperature;BME280_humidity;BME280_pressure;Samples;Min_cycle;Max_cycle;Signal;HPM_P1;HPM_P2
2021/09/27 00:01:00;;;;;;;;;15.33;11.00;;;;;19.09;76.78;101230.47;5035523;28;47552;-75
2021/09/27 00:03:26;;;;;;;;;9.00;8.00;;;;;19.11;77.20;101239.34;5019704;28;46798;-75
2021/09/27 00:05:52;;;;;;;;;11.00;9.33;;;;;19.13;77.18;101236.66;5035509;28;45622;-75
2021/09/27 00:08:17;;;;;;;;;9.67;9.67;;;;;19.15;76.94;101229.47;5035662;28;45307;-75
2021/09/27 00:10:46;;;;;;;;;14.00;10.67;;;;;19.19;77.15;101228.50;5035280;28;46494;-76
2021/09/27 00:13:11;;;;;;;;;11.67;9.33;;;;;19.22;76.69;101229.31;5035040;28;45410;-75
2021/09/27 00:15:48;;;;;;;;;7.33;7.33;;;;;19.23;77.24;101225.75;5035554;28;45413;-75
2021/09/27 00:18:14;;;;;;;;;6.33;6.00;;;;;19.28;77.23;101228.31;5036867;28;45500;-75
2021/09/27 00:20:40;;;;;;;;;8.00;7.33;;;;;19.32;76.53;101224.69;5038802;28;47209;-75
2021/09/27 00:23:06;;;;;;;;;9.33;7.67;;;;;19.32;76.39;101217.53;5025009;28;45408;-75
2021/09/27 00:25:31;;;;;;;;;7.33;7.33;;;;;19.33;76.35;101230.03;5038376;28;45312;-75
2021/09/27 00:27:57;;;;;;;;;9.67;7.33;;;;;19.31;76.69;101233.63;5038289;28;45490;-75
2021/09/27 00:30:23;;;;;;;;;7.00;7.00;;;;;19.26;76.64;101222.13;5043886;28;47564;-75
2021/09/27 00:32:49;;;;;;;;;7.00;7.00;;;;;19.27;76.46;101221.22;5038456;28;45897;-75
2021/09/27 00:35:18;;;;;;;;;8.00;8.00;;;;;19.23;76.36;101217.72;5038076;28;45456;-75
2021/09/27 00:37:43;;;;;;;;;9.33;9.00;;;;;19.22;76.71;101223.09;5031266;28;45374;-76
2021/09/27 00:40:10;;;;;;;;;9.00;7.67;;;;;19.20;76.82;101227.59;5037430;28;60633;-75
2021/09/27 00:42:36;;;;;;;;;10.00;6.67;;;;;19.19;77.03;101223.16;5038442;28;45336;-75
2021/09/27 00:45:02;;;;;;;;;7.33;7.33;;;;;19.18;76.96;101227.63;5037840;28;56032;-75
2021/09/27 00:47:27;;;;;;;;;10.00;7.00;;;;;19.17;76.66;101216.94;5038478;28;45503;-75
2021/09/27 00:49:52;;;;;;;;;7.33;7.00;;;;;19.16;76.37;101218.72;5036997;28;59401;-75
2021/09/27 00:52:18;;;;;;;;;7.00;7.00;;;;;19.12;76.78;101211.66;5007236;28;53001;-75
2021/09/27 00:54:43;;;;;;;;;10.00;8.00;;;;;19.13;76.80;101213.44;5026426;28;45347;-75
2021/09/27 00:57:13;;;;;;;;;7.67;7.67;;;;;19.13;76.59;101212.56;5037654;28;48024;-75
2021/09/27 00:59:39;;;;;;;;;8.33;8.00;;;;;19.10;76.50;101206.34;5014001;28;46754;-76
2021/09/27 01:02:04;;;;;;;;;10.33;8.00;;;;;19.09;76.82;101204.59;5038023;28;45558;-75
2021/09/27 01:04:30;;;;;;;;;7.67;7.67;;;;;19.09;76.60;101203.69;5037834;28;58379;-75
2021/09/27 01:07:01;;;;;;;;;7.33;6.33;;;;;19.08;76.24;101204.63;5038314;28;45294;-75
2021/09/27 01:09:54;;;;;;;;;8.00;8.00;;;;;19.03;76.49;101188.63;5037482;28;46404;-75
2021/09/27 01:12:46;;;;;;;;;10.67;8.33;;;;;19.09;76.36;101188.53;5037698;28;45415;-75
2021/09/27 01:15:39;;;;;;;;;9.00;9.00;;;;;19.09;76.78;101190.31;5000203;28;45491;-74
2021/09/27 01:18:23;;;;;;;;;12.67;10.33;;;;;19.03;76.54;101187.75;5037498;28;46180;-75
2021/09/27 01:21:08;;;;;;;;;11.00;11.00;;;;;19.03;76.54;101194.00;5033041;28;47560;-75
2021/09/27 01:24:00;;;;;;;;;12.33;10.67;;;;;19.01;76.17;101186.88;5030027;28;45336;-75
2021/09/27 01:26:50;;;;;;;;;11.67;10.33;;;;;18.98;76.37;101186.97;5034818;28;45616;-75
2021/09/27 01:29:40;;;;;;;;;13.00;11.00;;;;;18.95;76.32;101185.19;5027994;28;45309;-76
2021/09/27 01:32:33;;;;;;;;;8.67;8.67;;;;;18.94;76.64;101186.13;5039456;28;47700;-76
2021/09/27 01:35:33;;;;;;;;;11.67;9.33;;;;;18.94;76.10;101188.78;5044626;28;45586;-75
2021/09/27 01:38:25;;;;;;;;;11.67;9.00;;;;;18.94;76.19;101182.56;5025249;28;45287;-75
2021/09/27 01:41:08;;;;;;;;;6.67;6.67;;;;;18.92;76.70;101173.69;5025661;28;45266;-75
2021/09/27 01:44:09;;;;;;;;;11.00;9.00;;;;;18.94;76.49;101183.44;5006843;28;46218;-75
2021/09/27 01:46:37;;;;;;;;;11.00;11.00;;;;;18.94;76.40;101179.88;4997988;28;45277;-75
2021/09/27 01:49:23;;;;;;;;;9.67;9.67;;;;;18.90;76.19;101179.03;5036577;28;45455;-75
2021/09/27 01:51:52;;;;;;;;;10.33;9.00;;;;;18.94;76.46;101183.44;5025587;28;45350;-75
2021/09/27 01:54:42;;;;;;;;;8.33;8.00;;;;;18.94;76.26;101170.06;5036917;28;46597;-76
2021/09/27 01:57:19;;;;;;;;;8.00;8.00;;;;;18.96;76.49;101165.59;5006900;28;45453;-75
2021/09/27 02:00:03;;;;;;;;;9.67;8.33;;;;;18.98;76.34;101163.75;5042092;28;45538;-75
2021/09/27 02:02:48;;;;;;;;;10.33;8.00;;;;;18.96;76.07;101154.88;5033141;28;45461;-74
2021/09/27 02:05:27;;;;;;;;;11.00;9.33;;;;;18.99;76.62;101144.09;5022395;28;46096;-75
2021/09/27 02:07:55;;;;;;;;;8.33;8.00;;;;;18.99;76.62;101145.91;5025489;28;45936;-74
2021/09/27 02:10:23;;;;;;;;;9.00;7.00;;;;;18.99;76.47;101143.22;5035934;28;45425;-75
2021/09/27 02:13:09;;;;;;;;;10.00;9.00;;;;;19.01;76.17;101146.75;5012331;28;45589;-75
2021/09/27 02:15:44;;;;;;;;;9.33;9.33;;;;;19.00;76.30;101155.69;5036673;28;47387;-75
2021/09/27 02:18:14;;;;;;;;;11.67;10.00;;;;;19.00;76.12;101156.56;5018869;28;45459;-75
2021/09/27 02:20:43;;;;;;;;;13.00;10.00;;;;;19.00;76.45;101147.66;5032623;28;45480;-74
2021/09/27 02:23:12;;;;;;;;;12.33;12.33;;;;;18.99;76.36;101140.53;5014637;28;45524;-74
2021/09/27 02:25:39;;;;;;;;;7.67;7.67;;;;;18.90;76.38;101143.38;5027143;28;47091;-75
2021/09/27 02:28:10;;;;;;;;;12.00;9.00;;;;;18.96;76.60;101152.19;5026201;28;45524;-75
2021/09/27 02:30:54;;;;;;;;;9.00;9.00;;;;;18.94;76.07;101156.69;5047380;28;45567;-75
2021/09/27 02:33:29;;;;;;;;;14.00;11.00;;;;;18.93;76.70;101154.94;5043921;28;45571;-75
2021/09/27 02:35:57;;;;;;;;;10.33;10.33;;;;;18.93;76.63;101159.41;5006747;28;46398;-75
2021/09/27 02:38:47;;;;;;;;;12.00;10.00;;;;;18.92;76.57;101152.28;5044213;28;45345;-75
2021/09/27 02:41:18;;;;;;;;;10.00;10.00;;;;;18.92;76.10;101149.59;5049869;28;45387;-75
2021/09/27 02:43:44;;;;;;;;;13.00;10.00;;;;;18.85;76.41;101140.78;5040679;28;45575;-76
2021/09/27 02:46:11;;;;;;;;;12.33;11.00;;;;;18.89;76.39;101137.16;5053663;28;46956;-74
2021/09/27 02:48:41;;;;;;;;;11.33;8.33;;;;;18.89;75.85;101141.63;5045524;28;45487;-75
2021/09/27 02:51:11;;;;;;;;;10.33;10.33;;;;;18.88;76.38;101143.41;5023215;28;45607;-74
2021/09/27 02:53:37;;;;;;;;;12.67;10.00;;;;;18.87;76.60;101147.00;5038237;28;45467;-75
2021/09/27 02:56:40;;;;;;;;;11.33;10.00;;;;;18.87;76.10;101141.66;5039815;28;46567;-75
2021/09/27 02:59:34;;;;;;;;;10.00;9.00;;;;;18.87;76.18;101140.78;5042699;28;45192;-75
2021/09/27 03:02:18;;;;;;;;;10.00;10.00;;;;;18.87;75.93;101143.47;5033586;28;45216;-75
2021/09/27 03:05:14;;;;;;;;;11.00;11.00;;;;;18.84;76.03;101134.56;5040070;28;45347;-75
2021/09/27 03:07:54;;;;;;;;;12.67;11.00;;;;;18.87;76.10;101143.47;5047258;28;46684;-75
2021/09/27 03:10:28;;;;;;;;;11.67;10.67;;;;;18.87;76.41;101138.09;5028402;28;45454;-75
2021/09/27 03:13:38;;;;;;;;;11.00;10.00;;;;;18.88;76.13;101138.06;5049949;28;45423;-76
2021/09/27 03:16:07;;;;;;;;;11.00;11.00;;;;;18.88;76.08;101130.03;5039933;28;45491;-76
2021/09/27 03:18:51;;;;;;;;;12.00;9.33;;;;;18.89;76.09;101133.59;5036771;28;46560;-75
2021/09/27 03:21:32;;;;;;;;;12.33;11.33;;;;;18.90;76.59;101138.03;5041870;28;45606;-75
2021/09/27 03:24:31;;;;;;;;;12.00;9.33;;;;;18.90;76.04;101140.72;5041457;28;45365;-75
2021/09/27 03:27:03;;;;;;;;;10.67;9.00;;;;;18.89;76.02;101130.91;5033384;28;45638;-74
2021/09/27 03:29:50;;;;;;;;;11.00;10.00;;;;;18.89;76.40;101131.81;5008674;28;46360;-75
2021/09/27 03:32:31;;;;;;;;;12.67;10.00;;;;;18.92;76.13;101136.22;5014392;28;45266;-75
2021/09/27 03:35:07;;;;;;;;;10.33;10.00;;;;;18.93;76.18;101135.31;5015592;28;45344;-75
2021/09/27 03:37:51;;;;;;;;;12.00;11.00;;;;;18.94;76.24;101139.75;5015154;28;45386;-75
2021/09/27 03:40:16;;;;;;;;;12.33;10.33;;;;;18.93;75.89;101136.19;5015575;28;47556;-75
2021/09/27 03:43:02;;;;;;;;;12.00;9.33;;;;;18.93;75.68;101154.94;5015419;28;45244;-74
2021/09/27 03:45:40;;;;;;;;;13.00;11.00;;;;;18.94;75.79;101161.16;4994125;28;45429;-75
2021/09/27 03:48:35;;;;;;;;;12.67;11.00;;;;;18.95;75.68;101152.22;4999316;28;45472;-75
2021/09/27 03:51:11;;;;;;;;;11.33;11.00;;;;;18.96;76.34;101154.88;5006002;28;47513;-75
2021/09/27 03:53:41;;;;;;;;;11.33;10.67;;;;;18.95;75.89;101144.19;5017605;28;45440;-75
2021/09/27 03:56:34;;;;;;;;;11.00;9.33;;;;;18.99;75.47;101156.59;5002285;28;45615;-74
2021/09/27 03:59:10;;;;;;;;;10.00;10.00;;;;;18.96;75.91;101149.53;5002450;28;45499;-74
2021/09/27 04:01:42;;;;;;;;;12.33;10.67;;;;;18.97;75.41;101155.75;5017511;28;46904;-74
2021/09/27 04:04:31;;;;;;;;;10.67;10.67;;;;;19.00;75.69;101156.56;5017726;28;45582;-74
2021/09/27 04:07:12;;;;;;;;;9.00;9.00;;;;;18.99;75.16;101146.78;5014589;28;45301;-75
2021/09/27 04:10:15;;;;;;;;;8.00;8.00;;;;;18.98;75.25;101155.72;5017548;28;45208;-75
2021/09/27 04:13:31;;;;;;;;;12.33;8.33;;;;;18.95;75.52;101153.09;4978016;28;46366;-75
2021/09/27 04:16:12;;;;;;;;;11.33;11.33;;;;;18.93;75.62;101149.56;4993606;28;45588;-74
2021/09/27 04:19:12;;;;;;;;;10.00;9.00;;;;;18.91;75.36;101162.09;5018918;28;45353;-75
2021/09/27 04:21:49;;;;;;;;;10.00;10.00;;;;;18.92;75.49;101168.34;5011221;28;45734;-75
2021/09/27 04:24:30;;;;;;;;;12.33;9.00;;;;;18.93;75.21;101154.03;5001569;28;46535;-74
2021/09/27 04:27:09;;;;;;;;;11.67;10.00;;;;;18.93;75.13;101148.69;5008957;28;45459;-74
2021/09/27 04:29:45;;;;;;;;;12.67;9.67;;;;;18.93;75.45;101146.91;5017312;28;45305;-74
2021/09/27 04:32:32;;;;;;;;;6.67;6.67;;;;;18.93;75.40;101138.88;5017471;28;45547;-74
2021/09/27 04:35:09;;;;;;;;;11.33;7.00;;;;;18.93;75.24;101130.84;5014239;28;47389;-75
2021/09/27 04:37:37;;;;;;;;;9.33;7.67;;;;;18.93;75.10;101127.28;5017295;28;45538;-74
2021/09/27 04:40:04;;;;;;;;;7.67;7.67;;;;;18.90;74.74;101122.84;5017492;28;45565;-75
2021/09/27 04:42:57;;;;;;;;;9.67;7.67;;;;;18.90;74.67;101120.19;5017320;28;45571;-74
2021/09/27 04:45:28;;;;;;;;;7.33;6.33;;;;;18.92;74.92;101125.53;5016547;28;47505;-75
2021/09/27 04:48:21;;;;;;;;;11.67;8.67;;;;;18.90;74.66;101112.16;5007878;28;45538;-75
2021/09/27 04:51:26;;;;;;;;;11.00;9.00;;;;;18.91;74.98;101123.72;5017046;28;45364;-75
2021/09/27 04:54:22;;;;;;;;;7.00;7.00;;;;;18.90;74.62;101120.19;5004136;28;46380;-75
2021/09/27 04:57:09;;;;;;;;;8.00;6.33;;;;;18.88;74.60;101108.63;5012179;28;46573;-75
2021/09/27 05:00:02;;;;;;;;;10.00;9.00;;;;;18.88;74.62;101113.97;5015096;28;45522;-75
2021/09/27 05:02:28;;;;;;;;;7.33;7.33;;;;;18.88;74.64;101111.31;5017761;28;45543;-74
2021/09/27 05:04:59;;;;;;;;;7.00;7.00;;;;;18.89;74.67;101113.06;5016996;28;45525;-75
2021/09/27 05:07:49;;;;;;;;;12.33;7.67;;;;;18.89;74.72;101112.19;5016615;28;47370;-75
2021/09/27 05:10:26;;;;;;;;;7.00;7.00;;;;;18.82;74.63;101088.22;5018413;28;45509;-75
2021/09/27 05:13:02;;;;;;;;;8.33;6.67;;;;;18.84;74.53;101097.09;5007935;28;45514;-74
2021/09/27 05:15:41;;;;;;;;;9.67;8.00;;;;;18.86;74.75;101096.22;5016972;28;45528;-74
2021/09/27 05:18:15;;;;;;;;;9.33;8.00;;;;;18.82;74.37;101088.22;5010597;28;46549;-75
2021/09/27 05:21:18;;;;;;;;;7.00;7.00;;;;;18.82;74.61;101090.91;5017757;28;45266;-74
2021/09/27 05:24:34;;;;;;;;;8.33;7.67;;;;;18.81;74.83;101089.16;5008460;28;45580;-75
2021/09/27 05:27:21;;;;;;;;;8.33;7.00;;;;;18.81;74.83;101097.19;4956975;28;45617;-75
2021/09/27 05:30:18;;;;;;;;;8.00;8.00;;;;;18.80;74.64;101090.06;5041602;28;45451;-75
2021/09/27 05:33:12;;;;;;;;;9.67;7.00;;;;;18.80;74.98;101095.41;5046612;28;45462;-75
2021/09/27 05:36:04;;;;;;;;;8.67;7.33;;;;;18.81;74.53;101097.19;5020978;28;45795;-75
2021/09/27 05:38:56;;;;;;;;;7.33;7.00;;;;;18.82;74.83;101093.59;5022629;28;45454;-76
2021/09/27 05:41:47;;;;;;;;;7.67;6.33;;;;;18.83;74.80;101091.78;5033336;28;46555;-74
2021/09/27 05:44:12;;;;;;;;;8.33;8.00;;;;;18.83;74.76;101086.44;5024120;28;45460;-73
2021/09/27 05:46:56;;;;;;;;;10.67;9.00;;;;;18.85;74.92;101079.25;5041138;28;45419;-76
2021/09/27 05:49:40;;;;;;;;;6.00;6.00;;;;;18.85;74.50;101081.91;5043117;28;45515;-73
2021/09/27 05:52:31;;;;;;;;;10.00;7.00;;;;;18.86;74.57;101072.13;5020610;28;47626;-77
2021/09/27 05:55:05;;;;;;;;;8.00;6.33;;;;;18.89;74.59;101082.75;5016032;28;45633;-74
2021/09/27 05:57:59;;;;;;;;;11.33;8.00;;;;;18.89;74.45;101085.44;5001176;28;45428;-76
2021/09/27 06:00:41;;;;;;;;;8.00;8.00;;;;;18.86;74.83;101088.19;5020344;28;45499;-74
2021/09/27 06:03:15;;;;;;;;;8.00;8.00;;;;;18.89;74.31;101098.81;5015391;28;47686;-74
2021/09/27 06:05:46;;;;;;;;;9.67;7.00;;;;;18.89;74.49;101098.81;5039822;28;45462;-75
2021/09/27 06:08:42;;;;;;;;;8.00;8.00;;;;;18.92;74.86;101109.47;5006114;28;45202;-74
2021/09/27 06:11:21;;;;;;;;;9.67;8.00;;;;;18.93;74.63;101112.09;5041282;28;45321;-74
2021/09/27 06:13:47;;;;;;;;;6.33;6.33;;;;;18.91;74.28;101113.03;5023506;28;47925;-78
2021/09/27 06:16:34;;;;;;;;;7.00;7.00;;;;;18.89;74.33;101117.53;5002433;28;45405;-76
2021/09/27 06:19:22;;;;;;;;;8.00;8.00;;;;;18.88;75.07;101123.81;5018219;28;45563;-77
2021/09/27 06:22:02;;;;;;;;;7.00;7.00;;;;;18.87;74.56;101122.06;5024446;28;45487;-76
2021/09/27 06:24:59;;;;;;;;;7.67;6.00;;;;;18.82;74.38;101125.69;5040421;28;46621;-76
2021/09/27 06:28:02;;;;;;;;;7.67;6.00;;;;;18.82;74.96;101119.47;5041927;28;45372;-77
2021/09/27 06:30:45;;;;;;;;;6.33;6.33;;;;;18.80;75.41;101115.91;5015622;28;45543;-77
2021/09/27 06:33:29;;;;;;;;;7.00;7.00;;;;;18.77;74.76;101126.69;5028448;28;45770;-77
2021/09/27 06:35:55;;;;;;;;;9.00;6.00;;;;;18.75;75.37;101123.13;5042031;28;46842;-77
2021/09/27 06:38:29;;;;;;;;;8.00;7.00;;;;;18.74;75.60;101102.66;5001805;28;45484;-77
2021/09/27 06:40:54;;;;;;;;;7.00;7.00;;;;;18.78;75.49;101117.75;5001628;28;45378;-77
2021/09/27 06:43:22;;;;;;;;;5.33;5.33;;;;;18.78;74.87;101123.97;5032540;28;45527;-77
2021/09/27 06:45:47;;;;;;;;;6.67;6.67;;;;;18.78;74.99;101115.94;5036227;28;46451;-79
2021/09/27 06:48:13;;;;;;;;;7.00;7.00;;;;;18.78;75.63;101118.63;4995133;28;45495;-80
2021/09/27 06:50:38;;;;;;;;;6.00;6.00;;;;;18.83;75.36;101122.09;5039205;28;54938;-77
2021/09/27 06:53:03;;;;;;;;;7.00;6.00;;;;;18.85;75.39;101124.72;5032437;28;45844;-78
2021/09/27 06:55:29;;;;;;;;;7.00;7.00;;;;;18.86;75.43;101117.63;5032700;28;60707;-77
2021/09/27 06:57:54;;;;;;;;;6.00;6.00;;;;;18.80;75.39;101100.75;5036305;28;53544;-79
2021/09/27 07:00:20;;;;;;;;;6.33;6.33;;;;;18.82;75.42;101106.97;5032986;28;54860;-78
2021/09/27 07:02:45;;;;;;;;;5.33;5.33;;;;;18.81;75.75;101105.19;5034191;28;45553;-80
2021/09/27 07:05:11;;;;;;;;;8.33;6.00;;;;;18.83;75.63;101106.03;5034024;28;60936;-76
2021/09/27 07:07:36;;;;;;;;;8.33;7.33;;;;;18.84;76.03;101115.81;5026973;28;45446;-77
2021/09/27 07:10:03;;;;;;;;;8.00;6.33;;;;;18.82;75.88;101119.47;5029760;28;45334;-79
2021/09/27 07:12:29;;;;;;;;;5.00;5.00;;;;;18.82;75.46;101114.97;5027155;28;45539;-80
2021/09/27 07:14:54;;;;;;;;;8.00;5.00;;;;;18.79;75.75;101109.69;5033809;28;60453;-79
2021/09/27 07:17:20;;;;;;;;;8.33;5.67;;;;;18.76;75.91;101116.91;5034283;28;49829;-77
2021/09/27 07:19:45;;;;;;;;;7.67;5.00;;;;;18.79;75.69;101116.81;5028403;28;55388;-79
2021/09/27 07:22:10;;;;;;;;;7.00;6.00;;;;;18.78;75.72;101110.59;5035349;28;45367;-80
2021/09/27 07:24:36;;;;;;;;;10.00;9.00;;;;;18.72;76.24;101097.34;5034005;28;46510;-77
2021/09/27 07:27:02;;;;;;;;;7.00;7.00;;;;;18.74;76.02;101103.53;5034854;28;45542;-78
2021/09/27 07:29:27;;;;;;;;;4.67;4.67;;;;;18.74;75.94;101098.19;5157365;22;45782;-76
2021/09/27 07:31:53;;;;;;;;;8.00;6.33;;;;;18.74;76.04;101102.66;5034449;28;45442;-77
2021/09/27 07:34:18;;;;;;;;;5.33;5.33;;;;;18.75;76.25;101101.72;5035505;28;47308;-78
2021/09/27 07:36:44;;;;;;;;;6.67;6.33;;;;;18.76;76.15;101107.06;5036488;28;45399;-79
2021/09/27 07:39:09;;;;;;;;;7.00;5.33;;;;;18.78;76.34;101104.38;5038165;28;45701;-75
2021/09/27 07:41:35;;;;;;;;;8.00;7.67;;;;;18.77;76.54;101102.59;5034795;28;45451;-75
2021/09/27 07:44:00;;;;;;;;;7.33;3.00;;;;;18.78;76.57;101105.25;5036830;28;52159;-76
2021/09/27 07:46:26;;;;;;;;;9.00;7.33;;;;;18.82;76.35;101117.66;5037003;28;52321;-76
2021/09/27 07:48:51;;;;;;;;;5.00;5.00;;;;;18.84;76.67;101110.47;5036469;28;45431;-77
2021/09/27 07:51:17;;;;;;;;;11.00;7.33;;;;;18.83;76.62;101103.38;5029424;28;45455;-77
2021/09/27 07:53:43;;;;;;;;;8.00;6.67;;;;;18.90;76.18;101100.56;5035963;28;46352;-77
2021/09/27 07:56:08;;;;;;;;;5.67;5.67;;;;;18.89;76.72;101099.69;5037241;28;53860;-77
2021/09/27 07:58:34;;;;;;;;;9.00;7.00;;;;;18.93;76.55;101103.19;5033771;28;45538;-77
2021/09/27 08:00:59;;;;;;;;;6.00;6.00;;;;;18.91;76.38;101105.00;5033141;28;48238;-77
2021/09/27 08:03:24;;;;;;;;;6.00;6.00;;;;;18.92;76.13;101113.03;5025997;28;49702;-77
2021/09/27 08:05:50;;;;;;;;;8.33;7.00;;;;;18.95;76.64;101112.94;5020543;28;45582;-78
2021/09/27 08:08:16;;;;;;;;;7.67;5.67;;;;;18.96;76.65;101112.06;5034063;28;45470;-78
2021/09/27 08:10:41;;;;;;;;;8.00;7.00;;;;;18.95;76.43;101109.41;5031258;28;45545;-77
2021/09/27 08:13:07;;;;;;;;;7.00;6.00;;;;;19.00;76.49;101115.53;5034425;28;51641;-78
2021/09/27 08:15:35;;;;;;;;;6.67;4.33;;;;;18.98;76.44;101112.03;5032737;28;45371;-77
2021/09/27 08:18:00;;;;;;;;;5.67;5.67;;;;;19.02;75.90;101116.41;5032274;28;45478;-77
2021/09/27 08:20:38;;;;;;;;;6.33;6.33;;;;;19.06;76.16;101118.09;5038471;28;45360;-76
2021/09/27 08:23:03;;;;;;;;;7.00;6.00;;;;;19.10;76.06;101114.44;5035946;28;47116;-76
2021/09/27 08:25:29;;;;;;;;;5.67;5.67;;;;;19.12;75.93;101117.97;5039474;28;45597;-77
2021/09/27 08:27:55;;;;;;;;;10.00;6.67;;;;;19.18;75.92;101103.63;5036721;28;45547;-77
2021/09/27 08:30:23;;;;;;;;;7.00;6.00;;;;;19.22;75.59;101099.94;5039125;28;45584;-77
2021/09/27 08:32:49;;;;;;;;;6.00;6.00;;;;;19.19;75.81;101100.91;5038311;28;46670;-77
2021/09/27 08:35:14;;;;;;;;;9.00;6.67;;;;;19.21;76.16;101107.09;5038335;28;54982;-77
2021/09/27 08:37:41;;;;;;;;;7.33;6.33;;;;;19.24;75.92;101087.41;5036647;28;46174;-77
2021/09/27 08:40:07;;;;;;;;;10.00;5.33;;;;;19.25;76.22;101098.09;5022274;28;45162;-77
2021/09/27 08:42:37;;;;;;;;;7.00;6.00;;;;;19.29;75.95;101097.13;5029264;28;47460;-77
2021/09/27 08:45:05;;;;;;;;;10.00;6.00;;;;;19.29;75.89;101102.47;5023030;28;46922;-77
2021/09/27 08:47:54;;;;;;;;;7.33;6.33;;;;;19.30;75.87;101082.81;5023967;28;45372;-77
2021/09/27 08:50:31;;;;;;;;;10.33;7.67;;;;;19.33;75.48;101100.59;5003163;28;46351;-77
2021/09/27 08:52:57;;;;;;;;;9.00;6.00;;;;;19.35;75.92;101104.13;5036548;28;46684;-78
2021/09/27 08:55:23;;;;;;;;;8.00;7.00;;;;;19.36;75.85;101096.06;5021175;28;45338;-78
2021/09/27 08:57:48;;;;;;;;;10.00;8.00;;;;;19.34;75.93;101087.19;5036740;28;56861;-77
2021/09/27 09:00:35;;;;;;;;;5.33;5.33;;;;;19.37;75.93;101086.22;5038418;28;45532;-76
2021/09/27 09:03:18;;;;;;;;;22.00;19.00;;;;;19.39;75.90;101081.75;5035540;28;47488;-77
2021/09/27 09:05:50;;;;;;;;;7.33;6.67;;;;;19.43;75.83;101078.06;5035198;28;45499;-77
2021/09/27 09:08:36;;;;;;;;;8.00;6.67;;;;;19.48;75.75;101080.66;5022240;28;45684;-77
2021/09/27 09:11:25;;;;;;;;;23.67;15.00;;;;;19.48;75.16;101077.97;5017687;28;45416;-77
2021/09/27 09:14:02;;;;;;;;;25.67;15.67;;;;;19.53;75.67;101084.09;5036375;28;47497;-77
2021/09/27 09:16:27;;;;;;;;;9.00;7.00;;;;;19.52;75.80;101093.94;5027987;28;45420;-77
2021/09/27 09:18:56;;;;;;;;;10.00;8.00;;;;;19.48;75.09;101083.31;5038739;28;48212;-78
2021/09/27 09:21:45;;;;;;;;;7.67;6.67;;;;;19.54;75.30;101083.19;5019280;28;45598;-78
2021/09/27 09:24:15;;;;;;;;;10.00;6.67;;;;;19.60;75.56;101069.69;5028779;28;47642;-76
2021/09/27 09:26:47;;;;;;;;;12.00;9.00;;;;;19.63;75.57;101062.47;5020926;28;45556;-77
2021/09/27 09:29:12;;;;;;;;;8.33;6.33;;;;;19.70;74.92;101056.97;5038183;28;45443;-77
2021/09/27 09:31:44;;;;;;;;;48.67;28.00;;;;;19.82;74.51;101065.63;5036597;28;45475;-79
2021/09/27 09:34:19;;;;;;;;;5.00;5.00;;;;;19.92;74.74;101052.91;5035801;28;46866;-77
2021/09/27 09:36:46;;;;;;;;;9.33;6.33;;;;;19.97;74.01;101048.28;5034913;28;45457;-77
2021/09/27 09:39:15;;;;;;;;;9.67;7.67;;;;;20.09;74.41;101055.16;5035114;28;45445;-80
2021/09/27 09:41:43;;;;;;;;;14.67;7.00;;;;;20.24;74.18;101073.56;5033487;28;45596;-77
2021/09/27 09:44:36;;;;;;;;;7.67;6.00;;;;;20.30;73.23;101059.97;5015621;28;46967;-78
2021/09/27 09:47:13;;;;;;;;;10.00;6.00;;;;;20.32;73.78;101079.59;5035978;28;45533;-78
2021/09/27 09:50:23;;;;;;;;;6.00;6.00;;;;;20.31;73.49;101080.50;5019225;28;45604;-78
2021/09/27 09:52:53;;;;;;;;;10.33;6.67;;;;;20.33;73.08;101083.16;5031234;28;45544;-78
2021/09/27 09:55:28;;;;;;;;;7.00;6.00;;;;;20.33;72.70;101075.97;5034102;28;48300;-77
2021/09/27 09:58:27;;;;;;;;;3.00;3.00;;;;;20.43;71.78;101092.72;5035231;28;45417;-77
2021/09/27 10:00:52;;;;;;;;;6.67;5.00;;;;;20.45;72.64;101096.22;5036988;28;45486;-77
2021/09/27 10:03:19;;;;;;;;;6.00;4.00;;;;;20.46;72.79;101089.09;5035651;28;45497;-76
2021/09/27 10:05:52;;;;;;;;;6.00;6.00;;;;;20.46;72.15;101081.97;5035067;28;46551;-76
2021/09/27 10:08:21;;;;;;;;;4.00;4.00;;;;;20.43;72.69;101073.94;5001168;28;45757;-76
2021/09/27 10:11:06;;;;;;;;;5.33;5.33;;;;;20.46;71.41;101092.69;5001825;28;45534;-77
2021/09/27 10:13:52;;;;;;;;;5.67;3.67;;;;;20.41;71.09;101083.84;5038654;28;45552;-74
2021/09/27 10:16:41;;;;;;;;;5.67;5.00;;;;;20.34;71.54;101088.47;5035861;28;46633;-78
2021/09/27 10:19:37;;;;;;;;;6.00;5.00;;;;;20.22;71.50;101090.56;5034784;28;45222;-74
2021/09/27 10:22:15;;;;;;;;;5.00;5.00;;;;;20.12;71.47;101100.63;5033913;28;45535;-75
2021/09/27 10:24:45;;;;;;;;;4.00;4.00;;;;;20.07;72.01;101083.78;5031823;28;46960;-74
2021/09/27 10:27:29;;;;;;;;;4.33;4.00;;;;;20.05;72.16;101085.63;5020894;28;46714;-76
2021/09/27 10:29:56;;;;;;;;;5.33;5.33;;;;;20.05;72.76;101088.31;5032794;28;45427;-75
2021/09/27 10:32:39;;;;;;;;;4.33;4.33;;;;;20.06;72.90;101101.66;5019857;28;45193;-74
2021/09/27 10:35:10;;;;;;;;;5.67;4.67;;;;;20.04;72.71;101095.47;5020624;28;45735;-73
2021/09/27 10:37:35;;;;;;;;;5.00;5.00;;;;;20.08;73.22;101101.63;5026953;28;47612;-72
2021/09/27 10:40:01;;;;;;;;;3.67;3.67;;;;;20.12;72.73;101109.56;5019626;28;45519;-74
2021/09/27 10:42:41;;;;;;;;;5.00;5.00;;;;;20.14;72.73;101102.38;5019680;28;54695;-74
2021/09/27 10:45:08;;;;;;;;;5.33;5.33;;;;;20.17;72.78;101105.91;5031631;28;45623;-73
2021/09/27 10:47:34;;;;;;;;;9.00;4.33;;;;;20.17;72.95;101105.91;5004641;28;46545;-72
2021/09/27 10:50:15;;;;;;;;;5.00;4.33;;;;;20.17;73.30;101104.09;5013592;28;45467;-74
2021/09/27 10:52:48;;;;;;;;;4.67;4.00;;;;;20.15;73.47;101106.81;5018638;28;45447;-74
2021/09/27 10:55:22;;;;;;;;;12.00;4.67;;;;;20.18;73.41;101104.97;5013078;28;45532;-76
2021/09/27 10:58:03;;;;;;;;;8.00;5.33;;;;;20.22;73.51;101099.50;5030164;28;46518;-72
2021/09/27 11:00:51;;;;;;;;;4.33;4.33;;;;;20.23;73.09;101100.38;5008847;28;45392;-73
2021/09/27 11:03:43;;;;;;;;;6.33;5.67;;;;;20.25;73.00;101099.44;4998432;28;45551;-73
2021/09/27 11:06:42;;;;;;;;;5.33;5.33;;;;;20.29;73.02;101094.84;5036438;28;45428;-73
2021/09/27 11:09:18;;;;;;;;;4.33;4.33;;;;;20.34;73.52;101101.00;4980118;28;47287;-74
2021/09/27 11:12:02;;;;;;;;;8.67;5.00;;;;;20.34;73.12;101090.25;5024905;28;45498;-73
2021/09/27 11:14:37;;;;;;;;;4.67;4.67;;;;;20.31;72.78;101182.41;5009393;28;45570;-73
2021/09/27 11:17:06;;;;;;;;;5.67;2.33;;;;;20.03;82.84;101232.25;5029248;28;45458;-74
2021/09/27 11:19:35;;;;;;;;;2.00;0.00;;;;;19.43;87.05;101244.09;5029437;28;47361;-75
2021/09/27 11:22:21;;;;;;;;;0.00;0.00;;;;;18.79;86.43;101234.53;5031235;28;46255;-73
2021/09/27 11:24:51;;;;;;;;;0.00;0.00;;;;;18.37;86.52;101238.72;5034173;28;45420;-76
2021/09/27 11:27:16;;;;;;;;;0.00;0.00;;;;;18.14;82.06;101241.72;5020956;28;45492;-76
2021/09/27 11:29:55;;;;;;;;;0.67;0.67;;;;;17.98;82.78;101230.38;5033903;28;46518;-76
2021/09/27 11:32:31;;;;;;;;;0.33;0.00;;;;;17.83;82.10;101249.25;5032841;28;45537;-76
2021/09/27 11:35:03;;;;;;;;;2.00;0.33;;;;;17.63;81.92;101255.72;5038432;28;45417;-77
2021/09/27 11:37:41;;;;;;;;;0.00;0.00;;;;;17.34;82.19;101252.44;5034617;28;45451;-75
2021/09/27 11:40:07;;;;;;;;;1.00;1.00;;;;;17.20;82.87;101271.25;5032065;28;47951;-76
2021/09/27 11:42:33;;;;;;;;;2.00;0.00;;;;;17.12;82.61;101268.66;5031616;28;45680;-74
2021/09/27 11:44:59;;;;;;;;;0.67;0.67;;;;;17.01;82.35;101271.44;5020754;28;45514;-73
2021/09/27 11:47:42;;;;;;;;;2.00;0.00;;;;;16.99;83.05;101283.00;5029142;28;46858;-75
2021/09/27 11:50:35;;;;;;;;;1.00;1.00;;;;;17.00;82.51;101287.44;5032955;28;46521;-76
2021/09/27 11:53:09;;;;;;;;;0.00;0.00;;;;;16.96;81.86;101286.59;5026684;28;45485;-75
2021/09/27 11:56:04;;;;;;;;;1.00;0.33;;;;;16.85;82.33;101271.56;5010558;28;45528;-75
2021/09/27 11:58:31;;;;;;;;;0.00;0.00;;;;;16.84;81.86;101285.81;5028754;28;45708;-80
2021/09/27 12:01:00;;;;;;;;;2.00;0.00;;;;;16.80;81.66;101303.59;5001667;28;46541;-77
2021/09/27 12:03:37;;;;;;;;;3.00;0.00;;;;;16.84;82.67;101305.34;5009069;28;45582;-77